Columbus, Ohio
Current Conditions -  °F | °C
As of 2:51 AM on Saturday 20 Dec 2014 (Local Time) from KCMH Reporting Station
Overcast Overcast  
Wind Chill: 29°   Ceiling: 1700
Heat Index: 29°   Visibility: 9mi
Dew Point: 22°   Wind: 3mph
Humidity: 75%   Direction: 190°S
Pressure: 30.29"   Gusts: NA
Location:  39.96°N, 83°W
Report Text: KCMH 200751Z 19003KT 9SM OVC017 M02/M06 A3029 RMK AO2 SLP265 T10171056
Loading
Personal Weather Stations






























Interactive Weather Map New forecast layout! Learn more

10-Day Weather Forecast

Advertisements
Track Severe Weather on mobile